Time;durP1;ratioP1;P1;durP2;ratioP2;P2;SDS_P1;SDS_P2;PMS_P1;PMS_P2;Temp;Humidity;BMP_temperature;BMP_pressure;BME280_temperature;BME280_humidity;BME280_pressure;Samples;Min_cycle;Max_cycle;Signal;HPM_P1;HPM_P2
2022/02/12 00:01:41;;;;;;;9.73;2.77;;;;;;;0.34;100.00;101922.05;3511553;81;99199;-91
2022/02/12 00:06:42;;;;;;;10.53;3.05;;;;;;;0.31;100.00;101928.03;3516349;82;99110;-91
2022/02/12 00:11:43;;;;;;;11.93;2.70;;;;;;;0.26;100.00;101932.63;3516040;81;99217;-91
2022/02/12 00:16:44;;;;;;;10.67;2.53;;;;;;;0.19;100.00;101942.92;3515514;81;108595;-91
2022/02/12 00:21:52;;;;;;;10.17;3.60;;;;;;;0.12;100.00;101947.81;3527397;82;98865;-90
2022/02/12 00:26:52;;;;;;;9.13;2.58;;;;;;;0.09;100.00;101967.29;3488640;82;99079;-90
2022/02/12 00:31:54;;;;;;;12.53;2.80;;;;;;;0.04;100.00;101968.11;3507132;82;98689;-90
2022/02/12 00:37:00;;;;;;;13.07;2.63;;;;;;;0.01;100.00;101986.22;3452403;83;99168;-90
2022/02/12 00:42:02;;;;;;;7.70;2.30;;;;;;;-0.04;100.00;101990.84;3500737;82;99258;-89
2022/02/12 00:47:03;;;;;;;9.85;2.27;;;;;;;-0.10;100.00;101998.67;3448568;83;98738;-90
2022/02/12 00:52:05;;;;;;;11.00;2.58;;;;;;;-0.14;100.00;101994.88;3503627;81;98627;-90
2022/02/12 00:57:06;;;;;;;11.00;3.20;;;;;;;-0.18;100.00;102004.59;3452479;82;99275;-90
2022/02/12 01:02:07;;;;;;;11.47;2.93;;;;;;;-0.22;100.00;102009.47;3494282;82;99498;-90
2022/02/12 01:07:08;;;;;;;13.07;2.40;;;;;;;-0.27;100.00;102008.93;3511303;81;99481;-91
2022/02/12 01:12:09;;;;;;;11.30;2.43;;;;;;;-0.31;100.00;102013.23;3452380;84;99541;-90
2022/02/12 01:17:10;;;;;;;12.53;2.83;;;;;;;-0.33;100.00;102023.48;3506874;81;98874;-92
2022/02/12 01:22:14;;;;;;;14.70;3.10;;;;;;;-0.34;100.00;102026.48;3526999;81;99143;-92
2022/02/12 01:27:21;;;;;;;10.48;2.77;;;;;;;-0.37;100.00;102039.44;3514309;82;99367;-93
2022/02/12 01:32:29;;;;;;;15.20;3.50;;;;;;;-0.43;100.00;102045.12;3502573;81;98978;-92
2022/02/12 01:37:45;;;;;;;;;;;;;;;;;;;;;
2022/02/12 01:42:40;;;;;;;12.60;2.52;;;;;;;-0.54;100.00;102048.03;3544245;81;98623;-92
2022/02/12 01:47:44;;;;;;;9.40;2.25;;;;;;;-0.61;100.00;102062.34;3545958;80;99715;-93
2022/02/12 01:52:47;;;;;;;9.08;2.75;;;;;;;-0.68;100.00;102063.92;3553506;82;33503;-94
2022/02/12 01:57:49;;;;;;;14.10;4.20;;;;;;;-0.67;100.00;102071.52;3551928;81;99188;-94
2022/02/12 02:02:50;;;;;;;10.78;3.15;;;;;;;-0.73;100.00;102074.71;3555247;82;99412;-94
2022/02/12 02:07:54;;;;;;;12.30;3.93;;;;;;;-0.77;100.00;102080.36;3541192;82;99500;-94
2022/02/12 02:12:55;;;;;;;14.50;3.47;;;;;;;-0.78;100.00;102087.40;3575122;81;99376;-95
2022/02/12 02:17:57;;;;;;;10.30;3.30;;;;;;;-0.82;100.00;102099.80;3550413;81;99320;-96
2022/02/12 02:22:58;;;;;;;13.08;3.20;;;;;;;-0.84;100.00;102093.82;3562256;81;33134;-95
2022/02/12 02:27:59;;;;;;;12.30;3.30;;;;;;;-0.91;100.00;102100.83;3554775;82;99229;-94
2022/02/12 02:33:00;;;;;;;15.40;3.50;;;;;;;-0.96;100.00;102107.55;3503630;83;99187;-95
2022/02/12 02:38:08;;;;;;;12.60;3.02;;;;;;;-0.95;100.00;102120.50;3497140;82;99425;-95
2022/02/12 02:43:09;;;;;;;16.17;4.35;;;;;;;-0.98;100.00;102113.77;3571700;81;98561;-96
2022/02/12 02:58:43;;;;;;;18.27;5.67;;;;;;;-1.11;100.00;102130.95;3659858;78;99315;-96
2022/02/12 03:03:48;;;;;;;13.85;5.55;;;;;;;-1.12;100.00;102135.53;3642816;79;98980;-95
2022/02/12 03:08:49;;;;;;;14.98;4.35;;;;;;;-1.20;100.00;102137.89;3639618;80;99440;-96
2022/02/12 03:24:11;;;;;;;10.95;3.52;;;;;;;-1.32;100.00;102152.91;3564495;80;33160;-96
2022/02/12 03:29:12;;;;;;;13.33;3.20;;;;;;;-1.36;100.00;102168.02;3565882;80;98803;-96
2022/02/12 03:34:12;;;;;;;12.53;3.60;;;;;;;-1.42;100.00;102177.66;3582362;81;99665;-96
2022/02/12 03:39:13;;;;;;;12.77;3.27;;;;;;;-1.45;100.00;102180.86;3592713;81;99308;-96
2022/02/12 03:44:14;;;;;;;10.03;3.53;;;;;;;-1.47;100.00;102170.86;3554002;81;99230;-95
2022/02/12 03:49:15;;;;;;;15.90;3.83;;;;;;;-1.50;100.00;102175.41;3481282;82;99265;-95
2022/02/12 03:54:16;;;;;;;10.50;3.60;;;;;;;-1.54;100.00;102186.45;3522877;82;30107;-96
2022/02/12 03:59:17;;;;;;;11.77;4.00;;;;;;;-1.56;100.00;102196.16;3431669;83;99387;-95
2022/02/12 04:04:18;;;;;;;9.17;3.00;;;;;;;-1.58;100.00;102183.98;3451393;84;99222;-94
2022/02/12 04:09:19;;;;;;;10.90;3.70;;;;;;;-1.61;100.00;102193.92;3381895;85;99098;-93
2022/02/12 04:14:20;;;;;;;10.75;3.02;;;;;;;-1.68;100.00;102204.11;3419014;83;99686;-94
2022/02/12 04:19:21;;;;;;;11.53;3.57;;;;;;;-1.72;100.00;102210.55;3457484;83;99553;-93
2022/02/12 04:24:23;;;;;;;10.10;2.67;;;;;;;-1.73;100.00;102208.92;3451616;83;35501;-93
2022/02/12 04:29:24;;;;;;;7.03;2.77;;;;;;;-1.75;100.00;102194.84;3460059;83;99494;-92
2022/02/12 04:34:25;;;;;;;8.73;2.80;;;;;;;-1.78;100.00;102191.84;3449998;83;99064;-93
2022/02/12 04:39:26;;;;;;;8.27;2.77;;;;;;;-1.80;100.00;102196.13;3375650;85;99318;-93
2022/02/12 04:44:27;;;;;;;10.10;3.10;;;;;;;-1.83;100.00;102204.75;3461074;84;99041;-93
2022/02/12 04:49:27;;;;;;;10.37;2.67;;;;;;;-1.88;100.00;102197.11;3452912;83;99252;-93
2022/02/12 04:54:28;;;;;;;9.53;2.80;;;;;;;-1.90;100.00;102208.70;3466436;82;35270;-93
2022/02/12 04:59:29;;;;;;;8.98;3.30;;;;;;;-1.94;100.00;102210.27;3461177;83;99190;-92
2022/02/12 05:04:32;;;;;;;8.57;2.60;;;;;;;-1.99;100.00;102212.38;3447169;84;99118;-92
2022/02/12 05:09:35;;;;;;;8.03;3.00;;;;;;;-1.99;100.00;102216.94;3442869;83;99351;-92
2022/02/12 05:14:35;;;;;;;9.47;3.43;;;;;;;-2.03;100.00;102211.79;3457865;83;99041;-92
2022/02/12 05:19:36;;;;;;;10.03;3.50;;;;;;;-2.09;100.00;102208.75;3420422;84;99088;-92
2022/02/12 05:24:38;;;;;;;13.80;3.10;;;;;;;-2.11;100.00;102216.25;3433346;84;35231;-91
2022/02/12 05:29:38;;;;;;;11.43;3.37;;;;;;;-2.16;100.00;102216.19;3440038;84;99263;-92
2022/02/12 05:34:39;;;;;;;11.20;3.70;;;;;;;-2.19;100.00;102222.89;3427694;83;98968;-92
2022/02/12 05:39:40;;;;;;;10.13;3.50;;;;;;;-2.23;100.00;102228.52;3442574;82;99179;-93
2022/02/12 05:44:42;;;;;;;11.05;4.58;;;;;;;-2.33;100.00;102238.33;3447415;84;99567;-92
2022/02/12 05:49:42;;;;;;;16.33;4.20;;;;;;;-2.38;100.00;102250.39;3472983;83;99615;-91
2022/02/12 05:54:43;;;;;;;11.85;3.77;;;;;;;-2.39;100.00;102258.20;3468322;84;33685;-92
2022/02/12 05:59:44;;;;;;;14.77;4.27;;;;;;;-2.42;100.00;102257.33;3409066;85;99161;-92
2022/02/12 06:04:45;;;;;;;8.63;3.43;;;;;;;-2.47;100.00;102266.16;3469062;83;99052;-93
2022/02/12 06:09:46;;;;;;;12.70;3.50;;;;;;;-2.50;100.00;102271.23;3461638;83;99256;-92
2022/02/12 06:14:47;;;;;;;11.83;3.80;;;;;;;-2.53;100.00;102274.41;3364663;85;99296;-92
2022/02/12 06:19:48;;;;;;;10.63;3.33;;;;;;;-2.55;100.00;102281.94;3438376;84;99225;-93
2022/02/12 06:24:48;;;;;;;10.00;3.37;;;;;;;-2.59;100.00;102282.13;3365562;86;32355;-93
2022/02/12 06:29:49;;;;;;;10.67;3.70;;;;;;;-2.60;100.00;102288.08;3446245;84;99420;-93
2022/02/12 06:34:58;;;;;;;11.37;3.73;;;;;;;-2.62;100.00;102298.81;3449363;82;99315;-92
2022/02/12 06:39:54;;;;;;;15.70;3.60;;;;;;;-2.63;100.00;102302.02;3438883;84;99446;-90
2022/02/12 06:44:55;;;;;;;15.10;5.03;;;;;;;-2.63;100.00;102299.33;3448382;82;99168;-94
2022/02/12 06:49:55;;;;;;;13.10;3.97;;;;;;;-2.66;100.00;102306.58;3438201;83;99192;-93
2022/02/12 06:54:56;;;;;;;10.83;3.53;;;;;;;-2.64;100.00;102296.88;3452272;84;32445;-94
2022/02/12 06:59:57;;;;;;;11.50;4.17;;;;;;;-2.65;100.00;102303.33;3444931;81;99076;-94
2022/02/12 07:05:00;;;;;;;12.65;4.53;;;;;;;-2.64;100.00;102304.44;3451198;83;98974;-93
2022/02/12 07:10:01;;;;;;;11.85;4.45;;;;;;;-2.64;100.00;102316.56;3441447;84;99239;-91
2022/02/12 07:15:02;;;;;;;20.53;8.07;;;;;;;-2.64;100.00;102315.22;3447536;84;99497;-93
2022/02/12 07:20:04;;;;;;;20.97;5.80;;;;;;;-2.64;100.00;102316.56;3439481;81;99320;-92
2022/02/12 07:25:06;;;;;;;20.45;6.28;;;;;;;-2.58;100.00;102328.27;3420381;85;30476;-93
2022/02/12 07:30:10;;;;;;;12.45;3.55;;;;;;;-2.53;100.00;102321.06;3403552;85;99446;-93
2022/02/12 07:35:13;;;;;;;13.58;4.25;;;;;;;-2.45;100.00;102331.98;3409646;84;99033;-89
2022/02/12 07:40:16;;;;;;;14.63;4.47;;;;;;;-2.36;100.00;102336.70;3406136;85;99093;-90
2022/02/12 07:45:17;;;;;;;15.10;4.35;;;;;;;-2.21;100.00;102348.27;3442529;84;99235;-90
2022/02/12 07:50:18;;;;;;;18.13;4.53;;;;;;;-2.07;100.00;102348.22;3375291;86;99768;-88
2022/02/12 07:55:20;;;;;;;17.93;6.57;;;;;;;-1.94;100.00;102358.66;3374899;85;99590;-88
2022/02/12 08:00:21;;;;;;;17.33;5.10;;;;;;;-1.80;100.00;102359.96;3380260;85;98753;-87
2022/02/12 08:05:22;;;;;;;16.20;5.70;;;;;;;-1.64;100.00;102358.56;3454355;84;99657;-88
2022/02/12 08:15:42;;;;;;;14.63;4.90;;;;;;;-1.33;100.00;102369.22;3380923;85;99259;-87
2022/02/12 08:20:43;;;;;;;14.57;4.30;;;;;;;-1.17;100.00;102373.73;3426248;84;99188;-85
2022/02/12 08:25:45;;;;;;;17.30;6.30;;;;;;;-1.01;100.00;102367.45;3434969;83;99069;-86
2022/02/12 08:30:46;;;;;;;12.87;4.43;;;;;;;-0.83;100.00;102384.14;3420977;82;98771;-87
2022/02/12 08:35:47;;;;;;;16.83;5.97;;;;;;;-0.64;100.00;102394.08;3428653;84;98875;-86
2022/02/12 08:40:48;;;;;;;14.20;5.67;;;;;;;-0.44;100.00;102391.58;3435431;84;99229;-87
2022/02/12 08:45:49;;;;;;;25.97;7.47;;;;;;;-0.26;100.00;102388.75;3446433;82;99410;-86
2022/02/12 08:50:50;;;;;;;17.13;4.33;;;;;;;0.04;100.00;102395.78;3411972;83;99303;-88
2022/02/12 08:55:51;;;;;;;16.27;4.43;;;;;;;0.40;100.00;102394.92;3408462;85;99170;-87
2022/02/12 09:00:52;;;;;;;15.53;4.30;;;;;;;0.81;100.00;102400.02;3414368;85;98898;-91
2022/02/12 09:05:53;;;;;;;13.57;4.07;;;;;;;1.23;100.00;102381.73;3483092;83;98649;-94
2022/02/12 09:10:54;;;;;;;14.17;4.03;;;;;;;1.71;100.00;102391.57;3462404;84;98883;-91
2022/02/12 09:15:55;;;;;;;13.30;5.33;;;;;;;2.24;100.00;102386.14;3467647;84;98434;-92
2022/02/12 09:20:56;;;;;;;13.77;4.57;;;;;;;2.78;100.00;102391.96;3411076;84;98902;-91
2022/02/12 09:25:57;;;;;;;12.40;3.70;;;;;;;3.22;100.00;102392.84;3408894;84;98899;-91
2022/02/12 09:30:58;;;;;;;12.57;4.03;;;;;;;3.62;100.00;102391.79;3413850;84;98530;-91
2022/02/12 09:35:59;;;;;;;10.50;3.43;;;;;;;3.96;100.00;102385.26;3415075;84;98377;-91
2022/02/12 09:41:00;;;;;;;12.70;3.50;;;;;;;4.27;100.00;102385.22;3404179;82;98773;-90
2022/02/12 09:46:30;;;;;;;13.53;4.17;;;;;;;4.77;100.00;102382.52;3446235;83;98846;-90
2022/02/12 09:51:32;;;;;;;13.50;3.37;;;;;;;4.96;97.61;102383.38;3471406;82;98611;-91
2022/02/12 09:56:36;;;;;;;9.55;3.25;;;;;;;5.49;98.59;102381.54;3470068;82;98702;-93
2022/02/12 10:01:41;;;;;;;10.63;4.22;;;;;;;5.83;95.35;102381.33;3469821;84;98521;-92
2022/02/12 10:06:45;;;;;;;11.10;3.27;;;;;;;6.07;94.21;102380.64;3457114;84;25974;-91
2022/02/12 10:11:49;;;;;;;10.18;3.33;;;;;;;6.10;90.92;102366.35;3463750;84;98851;-92
2022/02/12 10:16:57;;;;;;;4.90;1.90;;;;;;;6.18;89.05;102379.34;3447174;83;98935;-93
2022/02/12 10:22:16;;;;;;;8.60;3.23;;;;;;;6.34;87.83;102366.45;3454454;84;98812;-90
2022/02/12 10:27:21;;;;;;;9.73;3.02;;;;;;;6.21;83.62;102363.15;3458534;83;98563;-92
2022/02/12 10:32:24;;;;;;;6.22;2.12;;;;;;;6.00;82.35;102360.52;3464126;83;98460;-92
2022/02/12 10:37:26;;;;;;;6.62;1.90;;;;;;;5.73;82.44;102362.33;3458406;84;98517;-92
2022/02/12 10:42:31;;;;;;;8.55;2.00;;;;;;;5.73;81.38;102361.75;3458064;84;25696;-91
2022/02/12 10:48:05;;;;;;;9.53;1.83;;;;;;;5.63;77.63;102359.75;3461240;83;98323;-91
2022/02/12 10:52:48;;;;;;;6.90;1.70;;;;;;;5.18;78.46;102362.59;3439386;83;98275;-91
2022/02/12 10:57:50;;;;;;;5.12;1.55;;;;;;;5.18;78.26;102354.98;3457128;84;98875;-95
2022/02/12 11:02:53;;;;;;;8.88;1.65;;;;;;;5.23;78.22;102346.72;3459728;83;98528;-91
2022/02/12 11:07:55;;;;;;;13.93;3.00;;;;;;;5.10;78.37;102340.06;3455792;84;98777;-89
2022/02/12 11:12:59;;;;;;;9.38;3.00;;;;;;;5.11;76.40;102341.68;3470514;84;26075;-95
2022/02/12 11:18:06;;;;;;;11.50;3.27;;;;;;;4.96;78.34;102341.88;3453524;82;98678;-90
2022/02/12 11:23:24;;;;;;;;;;;;;;;5.07;77.19;102345.30;3463212;84;97680;-92
2022/02/12 11:28:30;;;;;;;8.25;2.50;;;;;;;4.93;76.18;102343.02;3451290;84;84902;-91
2022/02/12 11:33:31;;;;;;;9.10;2.83;;;;;;;4.94;77.87;102336.45;3460599;84;98573;-91
2022/02/12 11:38:35;;;;;;;9.03;2.53;;;;;;;4.88;76.91;102333.00;3457516;83;98609;-91
2022/02/12 11:43:36;;;;;;;13.80;3.62;;;;;;;4.67;76.45;102317.17;3463374;84;97627;-93
2022/02/12 11:48:38;;;;;;;13.10;3.87;;;;;;;4.61;76.81;102322.42;3435203;84;98735;-93
2022/02/12 11:53:54;;;;;;;9.13;2.90;;;;;;;4.41;75.13;102320.75;3463158;83;98807;-94
2022/02/12 11:58:59;;;;;;;13.25;3.80;;;;;;;4.35;74.82;102317.83;3465554;83;98643;-95
2022/02/12 12:04:22;;;;;;;12.78;4.75;;;;;;;4.39;77.44;102312.06;3462488;82;98720;-94
2022/02/12 12:09:22;;;;;;;8.88;3.35;;;;;;;4.38;76.86;102301.45;3458445;84;98658;-92
2022/02/12 12:14:29;;;;;;;10.67;3.80;;;;;;;4.38;78.10;102290.54;3465419;84;98524;-90
2022/02/12 12:19:40;;;;;;;13.35;4.50;;;;;;;4.29;74.05;102297.19;3453814;84;98770;-93
2022/02/12 12:24:41;;;;;;;10.53;4.58;;;;;;;4.21;75.14;102288.83;3465732;84;25604;-92
2022/02/12 12:35:06;;;;;;;14.13;3.77;;;;;;;4.17;75.08;102266.80;3460408;84;98810;-92
2022/02/12 12:40:09;;;;;;;13.70;4.03;;;;;;;4.09;73.20;102255.73;3442179;84;98680;-91
2022/02/12 12:45:14;;;;;;;16.50;5.30;;;;;;;4.02;73.30;102247.06;3460968;84;98700;-93
2022/02/12 12:50:15;;;;;;;12.10;4.12;;;;;;;3.99;73.85;102247.09;3403831;84;98742;-90
2022/02/12 12:55:19;;;;;;;13.03;3.83;;;;;;;3.97;73.07;102245.22;3366454;86;98678;-89
2022/02/12 13:00:24;;;;;;;12.43;4.43;;;;;;;3.91;72.07;102236.02;3373778;86;98527;-89
2022/02/12 13:05:28;;;;;;;9.10;3.87;;;;;;;3.85;72.67;102235.81;3385400;86;98600;-95
2022/02/12 13:10:32;;;;;;;11.80;3.80;;;;;;;3.83;73.12;102227.92;3404764;82;98498;-91
2022/02/12 13:15:39;;;;;;;10.77;3.93;;;;;;;3.85;74.10;102222.20;3401768;84;98701;-94
2022/02/12 13:20:41;;;;;;;10.72;3.72;;;;;;;3.83;72.92;102208.06;3434673;82;98995;-92
2022/02/12 13:25:44;;;;;;;12.50;4.27;;;;;;;3.80;73.52;102194.47;3429778;85;98751;-92
2022/02/12 13:30:51;;;;;;;11.80;4.15;;;;;;;3.81;72.51;102198.81;3456918;83;98544;-95
2022/02/12 13:35:52;;;;;;;;;;;;;;;3.80;73.70;102195.84;3495446;81;98523;-92
2022/02/12 13:40:54;;;;;;;14.73;4.17;;;;;;;3.75;71.36;102190.44;3458195;84;84580;-95
2022/02/12 13:45:58;;;;;;;13.53;4.45;;;;;;;3.72;71.23;102186.13;3481867;83;98642;-90
2022/02/12 13:51:11;;;;;;;12.45;5.12;;;;;;;3.68;71.84;102181.81;3483267;80;98700;-94
2022/02/12 13:56:12;;;;;;;17.05;4.97;;;;;;;3.66;73.13;102176.39;3453625;83;99061;-94
2022/02/12 14:01:15;;;;;;;11.40;3.43;;;;;;;3.63;70.79;102169.61;3461466;84;98990;-93
2022/02/12 14:06:17;;;;;;;17.77;4.97;;;;;;;3.58;70.19;102164.75;3482624;84;25948;-92
2022/02/12 14:11:20;;;;;;;12.20;4.30;;;;;;;3.54;71.12;102156.89;3437532;85;98451;-90
2022/02/12 14:16:21;;;;;;;13.70;4.60;;;;;;;3.48;71.38;102146.62;3484867;83;98654;-90
2022/02/12 14:21:22;;;;;;;11.80;4.97;;;;;;;3.49;71.28;102132.48;3479981;82;98632;-91
2022/02/12 14:26:26;;;;;;;11.60;4.87;;;;;;;3.50;71.99;102140.90;3484577;83;98713;-87
2022/02/12 14:31:27;;;;;;;10.10;3.83;;;;;;;3.47;72.52;102112.34;3477072;83;98616;-91
2022/02/12 14:36:30;;;;;;;14.80;4.47;;;;;;;3.44;72.40;102111.55;3483637;82;33008;-92
2022/02/12 14:41:32;;;;;;;13.72;4.65;;;;;;;3.41;73.06;102098.53;3475797;82;98896;-91
2022/02/12 14:46:35;;;;;;;13.20;4.90;;;;;;;3.38;72.97;102107.83;3484133;82;98211;-92
2022/02/12 14:51:36;;;;;;;13.03;5.08;;;;;;;3.33;71.71;102082.82;3483171;82;99111;-91
2022/02/12 14:56:39;;;;;;;13.00;4.83;;;;;;;3.27;71.06;102073.09;3484667;82;99142;-93
2022/02/12 15:01:41;;;;;;;13.83;5.57;;;;;;;3.23;71.99;102062.52;3491183;82;98772;-92
2022/02/12 15:06:41;;;;;;;18.80;5.63;;;;;;;3.20;72.46;102063.11;3483459;82;33130;-96
2022/02/12 15:11:42;;;;;;;18.87;5.87;;;;;;;3.18;73.52;102066.65;3478647;83;98264;-94
2022/02/12 15:16:43;;;;;;;14.93;5.17;;;;;;;3.16;72.98;102061.27;3481513;83;98571;-89
2022/02/12 15:21:46;;;;;;;12.90;4.87;;;;;;;3.10;73.43;102041.98;3486052;82;98663;-90
2022/02/12 15:26:47;;;;;;;11.60;4.33;;;;;;;3.03;72.98;102038.27;3479055;82;103254;-91
2022/02/12 15:31:49;;;;;;;17.37;5.30;;;;;;;2.97;72.82;102038.59;3485984;83;98493;-94
2022/02/12 15:36:51;;;;;;;16.27;4.87;;;;;;;2.89;72.51;102034.59;3467695;82;98864;-90
2022/02/12 15:41:56;;;;;;;26.93;9.47;;;;;;;2.83;72.62;102037.64;3484846;83;98989;-88
2022/02/12 15:46:57;;;;;;;21.57;6.03;;;;;;;2.76;72.73;102035.81;3479338;83;98578;-89
2022/02/12 15:52:02;;;;;;;17.97;5.43;;;;;;;2.68;73.06;102021.48;3425352;84;98726;-88
2022/02/12 15:57:03;;;;;;;55.60;17.00;;;;;;;2.59;72.79;102018.58;3477507;83;98648;-88
2022/02/12 16:02:05;;;;;;;43.43;12.77;;;;;;;2.54;73.42;102016.44;3489573;83;98815;-91
2022/02/12 16:07:05;;;;;;;22.73;6.97;;;;;;;2.43;73.12;101996.70;3455082;83;98765;-86
2022/02/12 16:12:07;;;;;;;28.40;11.80;;;;;;;2.36;74.22;102004.92;3484050;83;98390;-89
2022/02/12 16:17:08;;;;;;;28.80;12.33;;;;;;;2.27;74.65;101985.70;3481438;83;99083;-90
2022/02/12 16:22:09;;;;;;;33.05;10.72;;;;;;;2.19;75.61;101975.42;3489673;83;98834;-92
2022/02/12 16:27:10;;;;;;;19.93;8.83;;;;;;;2.14;77.01;101976.82;3502374;82;99307;-89
2022/02/12 16:32:11;;;;;;;24.83;8.83;;;;;;;2.06;77.62;101980.69;3509489;82;99111;-91
2022/02/12 16:37:13;;;;;;;32.03;11.60;;;;;;;1.97;77.99;101975.05;3480549;83;99129;-87
2022/02/12 16:42:14;;;;;;;31.47;13.37;;;;;;;1.89;78.34;101977.02;3486715;83;33100;-87
2022/02/12 16:47:15;;;;;;;25.57;10.77;;;;;;;1.81;78.77;101970.81;3421609;84;99315;-91
2022/02/12 16:52:19;;;;;;;21.63;10.67;;;;;;;1.74;79.09;101970.86;3412394;85;99295;-88
2022/02/12 16:57:20;;;;;;;23.73;10.47;;;;;;;1.67;79.25;101965.77;3480446;83;99180;-90
2022/02/12 17:02:21;;;;;;;25.73;10.53;;;;;;;1.60;79.51;101973.95;3484549;83;98847;-90
2022/02/12 17:07:22;;;;;;;27.07;11.13;;;;;;;1.53;79.87;101967.46;3481090;83;98897;-89
2022/02/12 17:12:22;;;;;;;33.20;12.70;;;;;;;1.50;80.54;101975.35;3485091;82;33103;-90
2022/02/12 17:17:24;;;;;;;31.30;13.87;;;;;;;1.43;81.00;101966.72;3476735;82;99047;-90
2022/02/12 17:22:26;;;;;;;31.47;13.93;;;;;;;1.36;81.49;101963.47;3484570;83;99388;-90
2022/02/12 17:27:26;;;;;;;30.47;12.90;;;;;;;1.29;81.69;101962.44;3483131;83;98859;-89
2022/02/12 17:32:31;;;;;;;32.23;13.40;;;;;;;1.22;81.92;101962.47;3484797;83;99168;-90
2022/02/12 17:37:32;;;;;;;32.30;13.20;;;;;;;1.17;82.21;101967.38;3479576;82;98967;-90
2022/02/12 17:42:33;;;;;;;29.47;14.73;;;;;;;1.10;82.56;101953.28;3487191;83;25885;-89
2022/02/12 17:47:34;;;;;;;37.17;14.00;;;;;;;1.03;82.97;101955.48;3483350;83;99042;-91
2022/02/12 17:52:35;;;;;;;32.10;14.57;;;;;;;0.97;83.05;101952.53;3435191;84;98993;-89
2022/02/12 17:57:37;;;;;;;30.43;13.23;;;;;;;0.92;83.12;101948.48;3473325;83;98834;-91
2022/02/12 18:02:40;;;;;;;37.47;13.33;;;;;;;0.89;83.53;101942.80;3490893;83;98885;-91
2022/02/12 18:07:41;;;;;;;33.50;14.23;;;;;;;0.84;83.81;101942.28;3454584;83;98881;-90
2022/02/12 18:12:42;;;;;;;34.23;15.57;;;;;;;0.81;83.85;101939.29;3461199;83;33723;-90
2022/02/12 18:17:42;;;;;;;36.80;14.63;;;;;;;0.77;83.93;101934.17;3478680;83;99074;-94
2022/02/12 18:22:44;;;;;;;33.30;15.30;;;;;;;0.72;84.15;101932.83;3487263;83;98657;-90
2022/02/12 18:27:45;;;;;;;30.92;13.83;;;;;;;0.70;84.61;101931.74;3477464;83;99138;-90
2022/02/12 18:32:46;;;;;;;33.63;14.60;;;;;;;0.66;84.76;101921.74;3480430;83;99201;-91
2022/02/12 18:37:50;;;;;;;40.63;16.87;;;;;;;0.66;84.62;101919.03;3477699;83;99586;-88
2022/02/12 18:42:53;;;;;;;38.93;16.83;;;;;;;0.64;84.80;101916.59;3497987;83;25647;-89
2022/02/12 18:47:54;;;;;;;38.23;14.83;;;;;;;0.62;84.84;101904.41;3483324;82;98735;-89
2022/02/12 18:52:55;;;;;;;39.20;16.65;;;;;;;0.61;85.11;101900.08;3462917;84;98705;-88
2022/02/12 18:57:59;;;;;;;35.52;14.43;;;;;;;0.60;85.24;101883.56;3482013;82;99252;-90
2022/02/12 19:03:00;;;;;;;37.47;15.70;;;;;;;0.58;85.51;101874.88;3477540;83;98792;-89
2022/02/12 19:08:01;;;;;;;40.20;15.90;;;;;;;0.56;85.64;101858.89;3430001;85;98930;-89
2022/02/12 19:13:02;;;;;;;38.77;17.10;;;;;;;0.53;85.77;101868.95;3466944;84;33048;-89
2022/02/12 19:18:05;;;;;;;41.53;16.63;;;;;;;0.51;85.72;101856.77;3478462;82;98959;-90
2022/02/12 19:40:43;;;;;;;41.65;14.93;;;;;;;0.37;86.39;101837.58;3548146;81;98784;-91
2022/02/12 19:52:03;;;;;;;39.13;15.77;;;;;;;0.28;86.75;101828.38;3568545;81;98859;-86
2022/02/12 19:57:53;;;;;;;32.05;13.10;;;;;;;0.24;86.92;101823.80;3584877;81;99540;-87
2022/02/12 20:02:54;;;;;;;44.87;22.13;;;;;;;0.19;86.84;101821.10;3592960;81;98804;-86
2022/02/12 20:07:55;;;;;;;32.20;13.13;;;;;;;0.14;86.78;101817.05;3588703;81;98932;-87
2022/02/12 20:12:55;;;;;;;34.07;11.33;;;;;;;0.09;86.86;101809.77;3592455;81;33013;-88
2022/02/12 20:17:56;;;;;;;30.75;13.08;;;;;;;0.05;86.91;101805.15;3570587;81;99079;-87
2022/02/12 20:22:58;;;;;;;27.63;11.97;;;;;;;0.01;87.07;101800.04;3619554;80;98686;-87
2022/02/12 20:27:59;;;;;;;32.43;12.70;;;;;;;-0.02;87.25;101793.80;3564964;80;98781;-88
2022/02/12 20:33:01;;;;;;;21.53;10.33;;;;;;;-0.04;87.40;101794.08;3626387;80;99002;-87
2022/02/12 20:38:07;;;;;;;30.73;11.10;;;;;;;-0.05;87.59;101790.31;3584670;79;99116;-87
2022/02/12 20:43:10;;;;;;;22.82;9.68;;;;;;;-0.08;88.04;101784.08;3622657;79;25761;-87
2022/02/12 20:48:13;;;;;;;31.90;12.63;;;;;;;-0.10;87.93;101786.26;3602881;80;98941;-87
2022/02/12 20:53:16;;;;;;;36.33;14.35;;;;;;;-0.12;88.11;101764.06;3632621;80;98811;-86
2022/02/12 20:58:19;;;;;;;34.40;12.68;;;;;;;-0.13;88.00;101766.50;3629393;80;99094;-86
2022/02/12 21:03:21;;;;;;;31.17;13.83;;;;;;;-0.15;88.32;101767.33;3596707;80;99066;-86
2022/02/12 21:08:27;;;;;;;37.67;15.13;;;;;;;-0.17;88.37;101757.86;3592619;78;99018;-87
2022/02/12 21:13:28;;;;;;;29.27;11.93;;;;;;;-0.21;88.68;101754.34;3573167;80;99118;-86
2022/02/12 21:18:34;;;;;;;27.70;12.57;;;;;;;-0.23;88.81;101762.45;3598455;79;98609;-87
2022/02/12 21:23:35;;;;;;;30.95;12.07;;;;;;;-0.26;88.95;101755.69;3603151;79;98878;-87
2022/02/12 21:28:36;;;;;;;29.47;12.27;;;;;;;-0.27;89.06;101749.23;3568963;79;99220;-88
2022/02/12 21:33:40;;;;;;;28.93;11.30;;;;;;;-0.29;89.38;101753.29;3593011;79;98962;-88
2022/02/12 21:38:50;;;;;;;29.45;11.95;;;;;;;-0.32;89.51;101745.97;3591940;78;99476;-88
2022/02/12 21:43:52;;;;;;;28.57;13.30;;;;;;;-0.34;89.93;101744.62;3635479;80;99077;-88
2022/02/12 21:48:56;;;;;;;36.27;14.07;;;;;;;-0.38;90.30;101732.75;3638464;80;98960;-88
2022/02/12 21:53:58;;;;;;;32.78;14.30;;;;;;;-0.42;90.23;101733.02;3594624;80;99121;-89
2022/02/12 21:59:01;;;;;;;34.70;14.77;;;;;;;-0.46;90.26;101729.23;3587306;79;99642;-89
2022/02/12 22:04:02;;;;;;;29.33;12.77;;;;;;;-0.48;90.67;101723.30;3572793;80;98986;-85
2022/02/12 22:09:03;;;;;;;28.80;12.70;;;;;;;-0.51;90.74;101723.03;3592426;79;98926;-87
2022/02/12 22:14:04;;;;;;;29.47;13.87;;;;;;;-0.54;90.74;101711.39;3593880;79;99021;-87
2022/02/12 22:19:05;;;;;;;31.10;12.80;;;;;;;-0.58;90.87;101701.67;3592142;80;98658;-88
2022/02/12 22:24:07;;;;;;;34.63;14.17;;;;;;;-0.61;91.50;101695.44;3569470;81;98537;-88
2022/02/12 22:29:10;;;;;;;32.30;13.97;;;;;;;-0.63;91.25;101691.38;3586033;80;98841;-87
2022/02/12 22:34:11;;;;;;;30.97;13.93;;;;;;;-0.67;91.43;101687.63;3598865;80;98985;-88
2022/02/12 22:39:12;;;;;;;31.60;14.17;;;;;;;-0.70;91.59;101684.92;3526044;81;99002;-88
2022/02/12 22:44:13;;;;;;;28.83;12.00;;;;;;;-0.72;91.53;101694.39;3595936;80;99632;-87
2022/02/12 22:49:14;;;;;;;29.53;12.77;;;;;;;-0.72;91.75;101690.33;3594366;80;99116;-87
2022/02/12 22:54:15;;;;;;;32.43;13.70;;;;;;;-0.74;91.83;101683.02;3595811;80;33097;-88
2022/02/12 22:59:16;;;;;;;42.87;17.87;;;;;;;-0.76;92.16;101680.61;3597810;80;99480;-87
2022/02/12 23:04:17;;;;;;;34.70;14.60;;;;;;;-0.79;91.92;101679.78;3602702;80;99289;-88
2022/02/12 23:09:18;;;;;;;36.07;14.67;;;;;;;-0.82;91.80;101667.36;3595176;80;99691;-88
2022/02/12 23:14:19;;;;;;;38.53;14.93;;;;;;;-0.84;91.80;101666.80;3627140;80;99189;-88
2022/02/12 23:19:19;;;;;;;34.83;14.53;;;;;;;-0.87;92.01;101657.37;3565288;80;99315;-89
2022/02/12 23:25:10;;;;;;;30.00;13.20;;;;;;;-0.90;92.26;101649.80;3634730;80;27034;-88
2022/02/12 23:29:23;;;;;;;33.48;14.65;;;;;;;-0.91;92.48;101636.02;3555465;81;99490;-89
2022/02/12 23:34:25;;;;;;;36.20;16.00;;;;;;;-0.92;92.42;101626.83;3635547;79;99914;-89
2022/02/12 23:39:26;;;;;;;34.33;15.20;;;;;;;-0.95;92.61;101618.73;3587581;80;99431;-88
2022/02/12 23:44:27;;;;;;;33.07;13.43;;;;;;;-0.95;92.79;101603.05;3602000;80;99227;-87
2022/02/12 23:49:27;;;;;;;29.87;12.93;;;;;;;-0.99;92.90;101609.53;3590902;80;99184;-86
2022/02/12 23:54:28;;;;;;;33.15;13.40;;;;;;;-0.99;92.94;101600.64;3603222;80;31606;-88
2022/02/12 23:59:29;;;;;;;31.80;12.93;;;;;;;-1.01;93.05;101590.63;3593158;79;99041;-88
